Time;durP1;ratioP1;P1;durP2;ratioP2;P2;SDS_P1;SDS_P2;PMS_P1;PMS_P2;Temp;Humidity;BMP_temperature;BMP_pressure;BME280_temperature;BME280_humidity;BME280_pressure;Samples;Min_cycle;Max_cycle;Signal;HPM_P1;HPM_P2
2021/04/18 00:00:28;;;;;;;143.00;60.30;;;6.60;99.90;;;;;;4915806;28;20212;-81
2021/04/18 00:03:15;;;;;;;131.37;61.27;;;6.50;99.90;;;;;;4920316;28;20462;-82
2021/04/18 00:05:44;;;;;;;139.07;56.00;;;6.70;99.90;;;;;;4924579;28;20212;-82
2021/04/18 00:08:11;;;;;;;159.57;52.40;;;6.60;99.90;;;;;;4937032;28;20212;-82
2021/04/18 00:10:44;;;;;;;177.73;47.10;;;6.70;99.90;;;;;;4924454;29;20734;-83
2021/04/18 00:13:13;;;;;;;205.40;48.67;;;6.70;99.90;;;;;;4915872;28;20734;-84
2021/04/18 00:15:42;;;;;;;213.10;46.53;;;6.80;99.90;;;;;;4913437;28;20205;-81
2021/04/18 00:18:12;;;;;;;254.53;50.50;;;6.80;99.90;;;;;;4913068;28;20204;-82
2021/04/18 00:20:40;;;;;;;229.73;47.33;;;6.70;99.90;;;;;;4913074;29;20461;-83
2021/04/18 00:23:08;;;;;;;266.67;47.53;;;6.80;99.90;;;;;;4929544;28;20208;-82
2021/04/18 00:25:35;;;;;;;224.37;46.90;;;6.80;99.90;;;;;;4918302;28;20201;-81
2021/04/18 00:28:04;;;;;;;227.93;46.77;;;6.80;99.90;;;;;;4908978;29;20323;-80
2021/04/18 00:30:31;;;;;;;279.37;48.43;;;6.80;99.90;;;;;;4914782;29;20270;-81
2021/04/18 00:33:01;;;;;;;289.43;48.00;;;6.80;99.90;;;;;;4915442;29;20890;-80
2021/04/18 00:35:29;;;;;;;241.77;45.93;;;6.80;99.90;;;;;;4918055;28;20261;-80
2021/04/18 00:37:56;;;;;;;219.07;44.63;;;6.80;99.90;;;;;;4909726;29;20307;-82
2021/04/18 00:40:26;;;;;;;347.70;49.90;;;6.80;99.90;;;;;;4916787;29;20211;-82
2021/04/18 00:42:55;;;;;;;195.73;41.73;;;6.80;99.90;;;;;;4911089;29;20206;-81
2021/04/18 00:45:23;;;;;;;288.67;46.00;;;6.80;99.90;;;;;;4911448;28;20269;-81
2021/04/18 00:47:53;;;;;;;320.07;48.90;;;6.90;99.90;;;;;;4908744;29;20213;-81
2021/04/18 00:50:24;;;;;;;282.90;47.17;;;6.80;99.90;;;;;;4912842;29;20406;-80
2021/04/18 00:52:52;;;;;;;259.63;44.83;;;6.80;99.90;;;;;;4913222;29;20206;-83
2021/04/18 00:55:23;;;;;;;281.20;44.43;;;6.80;99.90;;;;;;4913482;28;20655;-81
2021/04/18 00:57:53;;;;;;;283.43;45.70;;;6.90;99.90;;;;;;4908406;28;20204;-82
2021/04/18 01:00:21;;;;;;;200.20;43.70;;;6.90;99.90;;;;;;4915344;28;20222;-82
2021/04/18 01:02:49;;;;;;;168.70;42.90;;;6.90;99.90;;;;;;4912540;28;20542;-81
2021/04/18 01:05:18;;;;;;;175.23;41.10;;;6.90;99.90;;;;;;4918516;28;20200;-81
2021/04/18 01:07:46;;;;;;;150.40;42.17;;;6.90;99.90;;;;;;4912511;29;20208;-80
2021/04/18 01:10:16;;;;;;;163.73;43.43;;;6.90;99.90;;;;;;4919035;29;20237;-80
2021/04/18 01:12:44;;;;;;;155.53;43.70;;;6.90;99.90;;;;;;4919813;29;20202;-82
2021/04/18 01:15:14;;;;;;;146.90;43.63;;;6.90;99.90;;;;;;4912286;29;20722;-80
2021/04/18 01:17:41;;;;;;;130.87;41.67;;;6.90;99.90;;;;;;4910923;29;20682;-80
2021/04/18 01:20:13;;;;;;;125.30;41.63;;;6.90;99.90;;;;;;4915738;29;20233;-82
2021/04/18 01:22:42;;;;;;;125.57;42.63;;;6.90;99.90;;;;;;4916443;29;20231;-83
2021/04/18 01:25:11;;;;;;;147.73;43.60;;;6.90;99.90;;;;;;4914219;29;20238;-81
2021/04/18 01:27:44;;;;;;;147.10;44.83;;;6.80;99.90;;;;;;4913121;28;20212;-82
2021/04/18 01:30:14;;;;;;;143.67;44.87;;;6.80;99.90;;;;;;4912909;29;20236;-81
2021/04/18 01:32:44;;;;;;;149.53;46.03;;;6.80;99.90;;;;;;4913581;29;20750;-81
2021/04/18 01:35:12;;;;;;;147.90;46.43;;;6.80;99.90;;;;;;4915555;29;20209;-82
2021/04/18 01:37:40;;;;;;;145.53;45.57;;;6.80;99.90;;;;;;4909758;29;20715;-81
2021/04/18 01:40:11;;;;;;;151.73;47.83;;;6.80;99.90;;;;;;4921307;29;20222;-82
2021/04/18 01:42:38;;;;;;;134.27;44.07;;;6.80;99.90;;;;;;4928558;29;20226;-81
2021/04/18 01:45:07;;;;;;;142.30;47.03;;;6.80;99.90;;;;;;4921645;29;20223;-81
2021/04/18 01:47:35;;;;;;;153.80;44.93;;;6.80;99.90;;;;;;4913389;29;20250;-82
2021/04/18 01:50:04;;;;;;;144.07;45.40;;;6.80;99.90;;;;;;4918634;29;20225;-82
2021/04/18 01:52:31;;;;;;;136.83;46.17;;;6.80;99.90;;;;;;4915434;28;20209;-82
2021/04/18 01:54:59;;;;;;;150.00;47.97;;;6.80;99.90;;;;;;4920050;29;20196;-82
2021/04/18 01:57:28;;;;;;;159.97;46.97;;;6.80;99.90;;;;;;4910002;29;20267;-80
2021/04/18 01:59:55;;;;;;;138.20;45.03;;;6.70;99.90;;;;;;4912452;28;20205;-84
2021/04/18 02:02:23;;;;;;;145.07;45.73;;;6.80;99.90;;;;;;4908159;29;20244;-82
2021/04/18 02:04:53;;;;;;;134.57;44.50;;;6.80;99.90;;;;;;4914210;29;20204;-82
2021/04/18 02:07:21;;;;;;;135.70;44.33;;;6.80;99.90;;;;;;4908407;28;20251;-83
2021/04/18 02:09:48;;;;;;;120.90;43.37;;;6.80;99.90;;;;;;4912888;28;20480;-80
2021/04/18 02:12:16;;;;;;;140.57;44.97;;;6.80;99.90;;;;;;4914401;28;20205;-83
2021/04/18 02:14:44;;;;;;;150.90;45.17;;;6.80;99.90;;;;;;4910575;29;20780;-81
2021/04/18 02:17:12;;;;;;;133.77;44.07;;;6.70;99.90;;;;;;4911391;28;20236;-82
2021/04/18 02:19:39;;;;;;;126.67;43.03;;;6.70;99.90;;;;;;4911032;29;20322;-81
2021/04/18 02:22:07;;;;;;;121.40;43.13;;;6.80;99.90;;;;;;4908802;29;20681;-80
2021/04/18 02:24:34;;;;;;;126.93;41.87;;;6.70;99.90;;;;;;4917429;29;20291;-81
2021/04/18 02:27:02;;;;;;;135.00;42.90;;;6.70;99.90;;;;;;4916138;28;20395;-80
2021/04/18 02:29:29;;;;;;;127.43;41.83;;;6.60;99.90;;;;;;4935425;28;20259;-82
2021/04/18 02:31:58;;;;;;;127.33;42.70;;;6.60;99.90;;;;;;4919676;28;20599;-83
2021/04/18 02:34:25;;;;;;;127.17;42.57;;;6.60;99.90;;;;;;4910938;28;20213;-81
2021/04/18 02:36:53;;;;;;;134.07;42.53;;;6.60;99.90;;;;;;4915715;28;20618;-80
2021/04/18 02:39:20;;;;;;;132.17;42.93;;;6.60;99.90;;;;;;4916967;28;20209;-83
2021/04/18 02:41:48;;;;;;;150.30;46.00;;;6.60;99.90;;;;;;4920422;29;20234;-82
2021/04/18 02:44:15;;;;;;;149.23;44.13;;;6.50;99.90;;;;;;4921697;29;20201;-84
2021/04/18 02:46:43;;;;;;;143.33;44.10;;;6.60;99.90;;;;;;4934663;29;20184;-83
2021/04/18 02:49:12;;;;;;;121.80;40.77;;;6.60;99.90;;;;;;4934901;28;20195;-81
2021/04/18 02:51:40;;;;;;;106.40;36.83;;;6.60;99.90;;;;;;4932300;29;20231;-80
2021/04/18 02:54:08;;;;;;;107.70;37.87;;;6.50;99.90;;;;;;4938085;28;20371;-82
2021/04/18 02:56:36;;;;;;;142.93;41.03;;;6.50;99.90;;;;;;4932989;29;20417;-83
2021/04/18 02:59:03;;;;;;;128.80;41.20;;;6.50;99.90;;;;;;4932315;29;20191;-81
2021/04/18 03:01:31;;;;;;;138.47;41.97;;;6.50;99.90;;;;;;4929534;29;20203;-82
2021/04/18 03:03:58;;;;;;;141.93;41.93;;;6.50;99.90;;;;;;4918993;29;20312;-82
2021/04/18 03:06:27;;;;;;;150.43;42.70;;;6.50;99.90;;;;;;4925215;29;20460;-80
2021/04/18 03:08:54;;;;;;;140.00;41.60;;;6.50;99.90;;;;;;4910241;29;20209;-81
2021/04/18 03:11:22;;;;;;;149.93;43.53;;;6.50;99.90;;;;;;4916277;29;20228;-81
2021/04/18 03:13:49;;;;;;;187.10;45.90;;;6.50;99.90;;;;;;4913156;29;20283;-81
2021/04/18 03:16:17;;;;;;;187.77;44.87;;;6.50;99.90;;;;;;4919683;28;20754;-80
2021/04/18 03:18:44;;;;;;;193.30;46.60;;;6.50;99.90;;;;;;4916230;29;20306;-81
2021/04/18 03:21:12;;;;;;;215.93;47.90;;;6.50;99.90;;;;;;4915315;28;20217;-82
2021/04/18 03:23:40;;;;;;;197.47;45.60;;;6.40;99.90;;;;;;4917792;29;20205;-82
2021/04/18 03:26:09;;;;;;;199.90;45.33;;;6.50;99.90;;;;;;4920363;28;20214;-82
2021/04/18 03:28:36;;;;;;;169.17;42.67;;;6.40;99.90;;;;;;4912524;29;20500;-82
2021/04/18 03:31:04;;;;;;;176.37;43.13;;;6.40;99.90;;;;;;4914331;29;21159;-80
2021/04/18 03:33:31;;;;;;;234.00;47.27;;;6.40;99.90;;;;;;4913984;29;20923;-81
2021/04/18 03:36:00;;;;;;;225.17;45.30;;;6.40;99.90;;;;;;4913288;29;20460;-81
2021/04/18 03:38:27;;;;;;;249.20;46.80;;;6.40;99.90;;;;;;4912502;29;20294;-81
2021/04/18 03:40:56;;;;;;;253.73;45.77;;;6.30;99.90;;;;;;4918292;29;20581;-82
2021/04/18 03:43:23;;;;;;;237.87;44.83;;;6.40;99.90;;;;;;4918966;28;20208;-80
2021/04/18 03:45:51;;;;;;;231.77;44.60;;;6.30;99.90;;;;;;4913850;28;20205;-82
2021/04/18 03:48:18;;;;;;;255.27;47.80;;;6.40;99.90;;;;;;4913134;28;20239;-84
2021/04/18 03:50:46;;;;;;;242.47;44.83;;;6.40;99.90;;;;;;4916491;29;20237;-83
2021/04/18 03:53:13;;;;;;;272.83;46.87;;;6.40;99.90;;;;;;4914391;29;20579;-82
2021/04/18 03:55:41;;;;;;;395.40;57.07;;;6.40;99.90;;;;;;4919774;28;20209;-82
2021/04/18 03:58:09;;;;;;;278.13;47.60;;;6.40;99.90;;;;;;4912678;29;20480;-82
2021/04/18 04:00:37;;;;;;;282.77;44.63;;;6.40;99.90;;;;;;4920881;29;20283;-82
2021/04/18 04:03:05;;;;;;;279.87;45.77;;;6.40;99.90;;;;;;4916304;29;20218;-81
2021/04/18 04:05:32;;;;;;;321.73;47.67;;;6.40;99.90;;;;;;4924394;28;20321;-81
2021/04/18 04:08:00;;;;;;;275.57;45.17;;;6.40;99.90;;;;;;4939908;28;20448;-81
2021/04/18 04:10:28;;;;;;;277.57;45.57;;;6.40;99.90;;;;;;4944241;28;20245;-82
2021/04/18 04:12:55;;;;;;;175.93;38.60;;;6.40;99.90;;;;;;4942580;28;20200;-82
2021/04/18 04:15:24;;;;;;;212.30;42.13;;;6.40;99.90;;;;;;4941767;28;20282;-83
2021/04/18 04:17:51;;;;;;;237.73;41.97;;;6.40;99.90;;;;;;4934124;28;20188;-82
2021/04/18 04:20:19;;;;;;;198.53;40.27;;;6.40;99.90;;;;;;4937846;29;20212;-83
2021/04/18 04:22:46;;;;;;;179.67;39.70;;;6.40;99.90;;;;;;4933271;29;20212;-82
2021/04/18 04:25:14;;;;;;;203.63;40.43;;;6.40;99.90;;;;;;4935234;29;20216;-82
2021/04/18 04:27:41;;;;;;;216.07;43.10;;;6.40;99.90;;;;;;4937875;29;20264;-82
2021/04/18 04:30:10;;;;;;;214.03;39.77;;;6.40;99.90;;;;;;4934494;29;20431;-80
2021/04/18 04:32:39;;;;;;;217.30;40.17;;;6.50;99.90;;;;;;4937591;29;20197;-80
2021/04/18 04:35:08;;;;;;;197.53;38.77;;;6.40;99.90;;;;;;4931508;29;20200;-82
2021/04/18 04:37:35;;;;;;;335.33;46.00;;;6.30;99.90;;;;;;4933420;28;20662;-79
2021/04/18 04:40:03;;;;;;;240.00;38.53;;;6.40;99.90;;;;;;4924428;29;20579;-81
2021/04/18 04:42:31;;;;;;;212.07;38.53;;;6.40;99.90;;;;;;4913556;29;20740;-81
2021/04/18 04:44:58;;;;;;;292.13;41.67;;;6.40;99.90;;;;;;4917215;29;20268;-82
2021/04/18 04:47:26;;;;;;;227.03;40.10;;;6.50;99.90;;;;;;4915477;29;20280;-80
2021/04/18 04:49:55;;;;;;;188.90;37.17;;;6.50;99.90;;;;;;4941686;28;20192;-83
2021/04/18 04:52:22;;;;;;;246.87;40.17;;;6.60;99.90;;;;;;4921927;29;20948;-80
2021/04/18 04:54:50;;;;;;;247.97;40.53;;;6.60;99.90;;;;;;4915321;29;20625;-83
2021/04/18 04:57:17;;;;;;;199.87;38.60;;;6.60;99.90;;;;;;4911338;29;20295;-80
2021/04/18 04:59:45;;;;;;;203.77;39.90;;;6.70;99.90;;;;;;4912029;29;20264;-81
2021/04/18 05:02:13;;;;;;;229.30;41.27;;;6.70;99.90;;;;;;4917512;28;20632;-82
2021/04/18 05:04:41;;;;;;;149.50;33.97;;;6.80;99.90;;;;;;4914689;29;20385;-82
2021/04/18 05:07:09;;;;;;;135.63;34.30;;;6.80;99.90;;;;;;4916795;28;20232;-81
2021/04/18 05:09:36;;;;;;;148.60;35.70;;;6.70;99.90;;;;;;4917876;28;20216;-82
2021/04/18 05:12:05;;;;;;;166.07;34.27;;;6.70;99.90;;;;;;4919603;29;20244;-80
2021/04/18 05:14:33;;;;;;;120.70;31.20;;;6.80;99.90;;;;;;4915382;29;20217;-81
2021/04/18 05:17:02;;;;;;;108.80;34.53;;;6.80;99.90;;;;;;4911759;28;20735;-83
2021/04/18 05:19:30;;;;;;;114.80;32.77;;;6.80;99.90;;;;;;4917404;28;20789;-79
2021/04/18 05:21:58;;;;;;;123.80;34.37;;;6.90;99.90;;;;;;4917359;29;20229;-81
2021/04/18 05:24:26;;;;;;;158.47;34.90;;;6.80;99.90;;;;;;4916971;29;20218;-82
2021/04/18 05:26:54;;;;;;;141.10;35.60;;;6.70;99.90;;;;;;4920857;29;20254;-81
2021/04/18 05:29:23;;;;;;;135.73;34.40;;;6.70;99.90;;;;;;4919828;29;20779;-80
2021/04/18 05:31:50;;;;;;;118.27;32.50;;;6.70;99.90;;;;;;4924260;28;20922;-82
2021/04/18 05:34:18;;;;;;;119.93;32.67;;;6.80;99.90;;;;;;4918206;29;20207;-82
2021/04/18 05:36:46;;;;;;;144.93;35.17;;;6.90;99.90;;;;;;4914613;29;20232;-83
2021/04/18 05:39:13;;;;;;;134.43;34.03;;;6.90;99.90;;;;;;4923494;28;20292;-82
2021/04/18 05:41:42;;;;;;;121.03;34.63;;;6.90;99.90;;;;;;4917919;29;20233;-81
2021/04/18 05:44:13;;;;;;;98.67;26.77;;;6.80;99.90;;;;;;4924337;29;20711;-82
2021/04/18 05:46:44;;;;;;;86.00;27.90;;;6.80;99.90;;;;;;4927859;28;20591;-82
2021/04/18 05:49:12;;;;;;;72.07;24.03;;;6.70;99.90;;;;;;4932584;28;20242;-83
2021/04/18 05:51:40;;;;;;;57.53;20.77;;;6.70;99.90;;;;;;4923263;29;20461;-82
2021/04/18 05:54:08;;;;;;;62.70;23.60;;;6.50;99.90;;;;;;4926700;29;20246;-81
2021/04/18 05:56:35;;;;;;;76.23;25.93;;;6.60;99.90;;;;;;4915436;28;20203;-81
2021/04/18 05:59:06;;;;;;;74.50;26.03;;;6.60;99.90;;;;;;4917594;29;20220;-82
2021/04/18 06:01:34;;;;;;;106.13;29.77;;;6.60;99.90;;;;;;4912332;29;20207;-81
2021/04/18 06:04:02;;;;;;;71.67;24.90;;;6.80;99.90;;;;;;4917684;29;20285;-81
2021/04/18 06:06:30;;;;;;;78.43;27.07;;;6.70;99.90;;;;;;4912071;28;20602;-83
2021/04/18 06:08:57;;;;;;;85.03;27.30;;;6.70;99.90;;;;;;4909085;29;20589;-80
2021/04/18 06:11:25;;;;;;;65.50;25.50;;;6.80;99.90;;;;;;4914124;29;20731;-82
2021/04/18 06:13:52;;;;;;;73.00;26.83;;;7.00;99.90;;;;;;4916104;29;20233;-81
2021/04/18 06:16:21;;;;;;;80.80;27.17;;;7.10;99.90;;;;;;4914106;29;20209;-82
2021/04/18 06:18:49;;;;;;;78.33;26.83;;;7.40;99.90;;;;;;4908668;28;20237;-82
2021/04/18 06:21:17;;;;;;;68.63;25.53;;;7.40;99.90;;;;;;4916082;28;20794;-81
2021/04/18 06:23:45;;;;;;;57.83;24.87;;;7.60;99.90;;;;;;4911238;29;20808;-82
2021/04/18 06:26:13;;;;;;;47.93;23.00;;;7.60;99.90;;;;;;4918941;28;20210;-82
2021/04/18 06:28:40;;;;;;;45.63;22.03;;;7.70;99.90;;;;;;4916757;29;20213;-82
2021/04/18 06:31:08;;;;;;;44.07;21.07;;;7.40;99.90;;;;;;4913539;29;20245;-82
2021/04/18 06:33:37;;;;;;;47.13;24.00;;;7.30;99.90;;;;;;4916377;29;20569;-82
2021/04/18 06:36:09;;;;;;;47.77;22.20;;;7.40;99.90;;;;;;4909041;29;20742;-83
2021/04/18 06:38:36;;;;;;;41.57;22.37;;;7.40;99.90;;;;;;4907602;28;20229;-81
2021/04/18 06:41:05;;;;;;;45.03;21.30;;;7.50;99.90;;;;;;4916898;29;20722;-82
2021/04/18 06:43:33;;;;;;;43.97;22.07;;;7.40;99.90;;;;;;4913931;28;20409;-81
2021/04/18 06:46:01;;;;;;;46.73;22.07;;;7.30;99.90;;;;;;4916444;29;20206;-82
2021/04/18 06:48:34;;;;;;;44.23;21.80;;;7.50;99.90;;;;;;4925384;29;20206;-81
2021/04/18 06:51:03;;;;;;;39.87;21.40;;;7.40;99.90;;;;;;4931106;28;20927;-81
2021/04/18 06:53:31;;;;;;;40.53;21.87;;;7.50;99.90;;;;;;4925983;29;20533;-81
2021/04/18 06:56:03;;;;;;;45.17;22.97;;;7.70;99.90;;;;;;4909604;29;20671;-80
2021/04/18 06:58:31;;;;;;;40.33;22.13;;;7.80;99.90;;;;;;4914406;28;20610;-82
2021/04/18 07:00:59;;;;;;;37.37;20.33;;;7.90;99.90;;;;;;4913281;29;20285;-82
2021/04/18 07:03:28;;;;;;;39.67;21.67;;;8.00;99.90;;;;;;4917459;29;20238;-81
2021/04/18 07:05:57;;;;;;;36.53;20.63;;;8.10;99.90;;;;;;4920256;29;20218;-83
2021/04/18 07:08:31;;;;;;;37.80;21.80;;;8.20;99.90;;;;;;4917678;29;20214;-83
2021/04/18 07:11:17;;;;;;;37.20;21.13;;;8.30;99.90;;;;;;4938716;28;20198;-82
2021/04/18 07:13:47;;;;;;;37.37;21.47;;;8.60;99.90;;;;;;4925503;28;20213;-81
2021/04/18 07:16:25;;;;;;;38.87;22.07;;;8.60;99.90;;;;;;4912690;29;20930;-86
2021/04/18 07:18:54;;;;;;;37.67;20.10;;;8.50;99.90;;;;;;4908302;29;20206;-82
2021/04/18 07:21:23;;;;;;;35.23;20.33;;;8.50;99.90;;;;;;4916683;29;20296;-82
2021/04/18 07:24:05;;;;;;;42.43;21.07;;;8.50;99.90;;;;;;4918988;29;20206;-83
2021/04/18 07:26:32;;;;;;;36.27;20.47;;;8.50;99.90;;;;;;4931630;28;20218;-83
2021/04/18 07:29:12;;;;;;;33.43;18.67;;;8.50;99.90;;;;;;4911631;29;20201;-83
2021/04/18 07:31:40;;;;;;;33.27;19.40;;;8.60;99.90;;;;;;4913523;29;20218;-83
2021/04/18 07:34:09;;;;;;;30.03;19.23;;;8.70;99.90;;;;;;4914320;29;20209;-83
2021/04/18 07:36:40;;;;;;;29.47;17.17;;;8.70;99.90;;;;;;4914275;29;20309;-83
2021/04/18 07:39:12;;;;;;;31.30;18.13;;;8.70;99.90;;;;;;4910224;29;20751;-84
2021/04/18 07:41:41;;;;;;;29.83;19.87;;;8.70;99.90;;;;;;4916600;29;20559;-82
2021/04/18 07:44:14;;;;;;;32.97;19.80;;;8.60;99.90;;;;;;4915216;29;20592;-85
2021/04/18 07:46:47;;;;;;;29.63;19.00;;;8.80;99.90;;;;;;4920184;29;20218;-82
2021/04/18 07:49:16;;;;;;;32.57;19.83;;;9.10;99.90;;;;;;4912632;29;20667;-83
2021/04/18 07:51:46;;;;;;;28.23;19.17;;;9.40;99.90;;;;;;4917602;29;20824;-82
2021/04/18 07:54:17;;;;;;;27.90;18.40;;;9.50;99.90;;;;;;4921918;29;21433;-84
2021/04/18 07:56:45;;;;;;;27.07;18.27;;;9.60;99.50;;;;;;4913252;29;20392;-84
2021/04/18 07:59:14;;;;;;;25.30;18.17;;;9.60;98.90;;;;;;4914976;29;20296;-82
2021/04/18 08:01:42;;;;;;;28.20;18.10;;;9.60;99.60;;;;;;4921500;29;20737;-81
2021/04/18 08:04:12;;;;;;;25.20;18.10;;;9.70;97.00;;;;;;4924055;29;20205;-84
2021/04/18 08:06:40;;;;;;;31.20;19.50;;;9.80;96.70;;;;;;4930760;29;20443;-82
2021/04/18 08:09:18;;;;;;;29.13;18.80;;;9.70;97.90;;;;;;4940861;29;20222;-83
2021/04/18 08:12:07;;;;;;;24.97;17.67;;;10.00;98.90;;;;;;4948480;28;20281;-84
2021/04/18 08:14:36;;;;;;;27.17;19.10;;;10.40;97.80;;;;;;4939525;29;20537;-83
2021/04/18 08:17:07;;;;;;;28.23;17.83;;;10.50;94.70;;;;;;4942777;29;20242;-83
2021/04/18 08:19:36;;;;;;;27.03;18.67;;;10.50;94.60;;;;;;4941544;29;20206;-83
2021/04/18 08:22:04;;;;;;;27.37;18.07;;;10.40;94.40;;;;;;4934307;28;20457;-82
2021/04/18 08:24:35;;;;;;;27.97;19.87;;;10.30;95.20;;;;;;4919580;29;20698;-83
2021/04/18 08:27:05;;;;;;;29.13;19.73;;;10.30;96.30;;;;;;4912432;28;20221;-82
2021/04/18 08:29:35;;;;;;;28.73;19.87;;;10.30;95.60;;;;;;4920140;29;20205;-81
2021/04/18 08:32:11;;;;;;;29.40;19.90;;;10.20;95.60;;;;;;4941609;29;20268;-85
2021/04/18 08:34:43;;;;;;;27.90;18.53;;;10.50;96.70;;;;;;4940591;28;20218;-82
2021/04/18 08:37:17;;;;;;;30.10;18.97;;;10.40;94.40;;;;;;4940121;29;20280;-83
2021/04/18 08:39:48;;;;;;;30.60;20.00;;;10.10;95.60;;;;;;4937572;29;20229;-83
2021/04/18 08:42:27;;;;;;;31.20;21.00;;;10.10;96.10;;;;;;4937367;28;20254;-83
2021/04/18 08:44:55;;;;;;;26.97;18.80;;;10.10;98.70;;;;;;4938251;28;20194;-85
2021/04/18 08:47:26;;;;;;;29.07;18.90;;;10.30;98.20;;;;;;4938626;28;20218;-81
2021/04/18 08:49:57;;;;;;;28.67;20.80;;;10.20;96.30;;;;;;4925458;29;20202;-84
2021/04/18 08:52:27;;;;;;;28.83;19.77;;;10.00;96.50;;;;;;4927250;28;20337;-82
2021/04/18 08:54:57;;;;;;;28.67;20.57;;;10.00;97.40;;;;;;4919691;29;20206;-81
2021/04/18 08:57:28;;;;;;;29.50;19.40;;;10.00;97.80;;;;;;4918885;28;20214;-81
2021/04/18 08:59:58;;;;;;;27.83;19.60;;;10.00;98.20;;;;;;4918500;28;20214;-82
2021/04/18 09:02:27;;;;;;;25.50;18.53;;;10.00;97.20;;;;;;4912730;29;20214;-83
2021/04/18 09:04:58;;;;;;;29.53;19.70;;;10.00;97.50;;;;;;4919993;29;20236;-82
2021/04/18 09:07:28;;;;;;;29.70;19.73;;;9.90;98.30;;;;;;4913610;28;20214;-83
2021/04/18 09:10:00;;;;;;;28.67;19.57;;;10.00;97.50;;;;;;4917785;29;20210;-84
2021/04/18 09:12:28;;;;;;;28.57;19.43;;;10.30;97.40;;;;;;4917161;28;20221;-84
2021/04/18 09:14:56;;;;;;;26.70;19.27;;;10.80;97.60;;;;;;4916291;29;20249;-80
2021/04/18 09:17:28;;;;;;;24.53;17.77;;;11.00;91.90;;;;;;4919006;29;20202;-83
2021/04/18 09:19:56;;;;;;;27.37;19.23;;;11.20;91.80;;;;;;4917945;29;20202;-83
2021/04/18 09:22:27;;;;;;;28.47;18.70;;;11.30;92.20;;;;;;4920831;28;20277;-83
2021/04/18 09:24:57;;;;;;;30.17;20.60;;;11.50;91.70;;;;;;4925679;29;20249;-84
2021/04/18 09:27:27;;;;;;;27.70;20.37;;;11.70;92.20;;;;;;4924842;29;20222;-82
2021/04/18 09:29:56;;;;;;;25.50;18.77;;;11.60;91.10;;;;;;4941514;28;20202;-83
2021/04/18 09:32:26;;;;;;;26.63;19.07;;;11.90;91.40;;;;;;4922514;28;20889;-82
2021/04/18 09:34:54;;;;;;;26.70;18.50;;;12.00;91.40;;;;;;4914138;29;20233;-82
2021/04/18 09:37:26;;;;;;;26.03;19.40;;;12.10;91.00;;;;;;4915140;28;20229;-82
2021/04/18 09:39:59;;;;;;;25.47;19.23;;;12.10;90.00;;;;;;4920479;28;20237;-83
2021/04/18 09:42:28;;;;;;;26.83;19.13;;;12.20;91.00;;;;;;4931950;29;20202;-83
2021/04/18 09:45:07;;;;;;;23.47;18.50;;;12.20;90.80;;;;;;4915570;29;20234;-85
2021/04/18 09:47:36;;;;;;;24.17;18.70;;;12.20;90.80;;;;;;4918671;29;20859;-84
2021/04/18 09:50:06;;;;;;;21.80;16.20;;;12.10;90.70;;;;;;4921430;29;20218;-84
2021/04/18 09:52:37;;;;;;;23.03;17.97;;;11.80;90.90;;;;;;4918538;29;20238;-84
2021/04/18 09:55:17;;;;;;;24.50;18.57;;;11.70;91.10;;;;;;4918928;29;20253;-82
2021/04/18 09:57:48;;;;;;;21.83;17.30;;;11.30;91.40;;;;;;4916718;29;20213;-83
2021/04/18 10:00:24;;;;;;;26.67;19.10;;;11.30;92.10;;;;;;4919433;29;20874;-84
2021/04/18 10:03:09;;;;;;;27.50;19.93;;;11.20;92.00;;;;;;4920299;29;20227;-83
2021/04/18 10:05:55;;;;;;;25.47;19.20;;;11.40;91.70;;;;;;4924246;29;20212;-82
2021/04/18 10:08:26;;;;;;;23.90;18.63;;;11.60;91.50;;;;;;4920915;29;20225;-83
2021/04/18 10:10:56;;;;;;;24.10;18.87;;;11.70;91.00;;;;;;4919681;29;20229;-83
2021/04/18 10:13:42;;;;;;;22.07;17.43;;;11.60;91.30;;;;;;4918925;29;20214;-85
2021/04/18 10:16:22;;;;;;;21.70;17.50;;;11.50;91.10;;;;;;4916497;29;20202;-82
2021/04/18 10:19:08;;;;;;;23.20;18.67;;;11.10;91.70;;;;;;4913385;28;20740;-82
2021/04/18 10:21:37;;;;;;;23.37;16.10;;;11.00;92.00;;;;;;4917686;28;20201;-81
2021/04/18 10:24:24;;;;;;;20.43;16.93;;;11.00;91.50;;;;;;4917455;29;20206;-83
2021/04/18 10:26:52;;;;;;;22.27;18.37;;;11.00;91.40;;;;;;4917635;29;20258;-85
2021/04/18 10:29:21;;;;;;;21.10;15.73;;;11.10;91.50;;;;;;4914392;29;20567;-84
2021/04/18 10:31:49;;;;;;;21.77;16.97;;;11.20;91.10;;;;;;4925083;29;20289;-84
2021/04/18 10:34:17;;;;;;;19.30;15.87;;;11.40;91.20;;;;;;4913768;29;20213;-84
2021/04/18 10:36:46;;;;;;;20.10;15.13;;;11.60;91.20;;;;;;4921636;29;20202;-84
2021/04/18 10:39:15;;;;;;;19.23;15.30;;;11.60;90.90;;;;;;4916345;29;20689;-83
2021/04/18 10:41:43;;;;;;;17.63;14.07;;;11.80;90.90;;;;;;4922320;29;20242;-83
2021/04/18 10:44:15;;;;;;;20.17;15.27;;;11.90;90.50;;;;;;4924971;28;20266;-84
2021/04/18 10:46:44;;;;;;;18.43;14.57;;;11.90;90.10;;;;;;4934359;29;20588;-84
2021/04/18 10:49:13;;;;;;;17.33;13.57;;;11.90;89.70;;;;;;4926525;29;20309;-83
2021/04/18 10:51:41;;;;;;;15.33;12.90;;;11.90;90.00;;;;;;4937388;28;20237;-81
2021/04/18 10:54:13;;;;;;;16.10;13.90;;;11.90;89.20;;;;;;4933095;29;20311;-84
2021/04/18 10:56:55;;;;;;;17.57;13.03;;;12.00;90.10;;;;;;4936582;29;20732;-82
2021/04/18 10:59:27;;;;;;;14.77;13.13;;;12.30;90.00;;;;;;4934217;29;20210;-85
2021/04/18 11:02:01;;;;;;;13.97;11.93;;;12.70;89.20;;;;;;4937872;29;20203;-84
2021/04/18 11:04:30;;;;;;;16.93;13.67;;;12.80;87.60;;;;;;4892392;29;20268;-84
2021/04/18 11:06:58;;;;;;;14.83;12.13;;;12.90;86.70;;;;;;4921419;29;20199;-84
2021/04/18 11:09:26;;;;;;;17.57;13.13;;;12.90;86.80;;;;;;4923496;29;20743;-83
2021/04/18 11:11:55;;;;;;;14.20;11.63;;;12.90;86.80;;;;;;4923602;29;20244;-84
2021/04/18 11:14:26;;;;;;;13.63;10.27;;;12.70;85.50;;;;;;4933030;29;20210;-82
2021/04/18 11:16:59;;;;;;;11.07;9.00;;;12.20;85.60;;;;;;4921996;29;20234;-83
2021/04/18 11:19:27;;;;;;;12.43;9.93;;;11.90;85.90;;;;;;4923160;29;20202;-83
2021/04/18 11:22:00;;;;;;;11.43;9.10;;;11.80;86.50;;;;;;4926576;29;20753;-84
2021/04/18 11:24:28;;;;;;;11.37;9.03;;;11.90;87.10;;;;;;4929577;29;20692;-82
2021/04/18 11:26:59;;;;;;;9.80;8.80;;;11.90;87.20;;;;;;4921623;29;20205;-85
2021/04/18 11:29:27;;;;;;;10.77;9.67;;;12.00;86.50;;;;;;4919476;29;21023;-83
2021/04/18 11:31:56;;;;;;;11.30;10.10;;;12.10;86.00;;;;;;4927851;29;20258;-83
2021/04/18 11:34:24;;;;;;;11.50;9.57;;;12.40;85.80;;;;;;4921532;29;20979;-83
2021/04/18 11:36:52;;;;;;;10.47;9.37;;;12.60;85.00;;;;;;4931625;28;20263;-83
2021/04/18 11:39:27;;;;;;;12.07;10.07;;;12.90;85.30;;;;;;4931911;28;20202;-83
2021/04/18 11:41:55;;;;;;;11.57;9.77;;;13.00;84.80;;;;;;4933092;28;20207;-83
2021/04/18 11:44:24;;;;;;;12.60;10.10;;;13.10;85.10;;;;;;4944145;28;20322;-83
2021/04/18 11:46:53;;;;;;;10.63;9.17;;;13.00;84.80;;;;;;4939370;28;20697;-83
2021/04/18 11:49:23;;;;;;;10.50;9.13;;;13.40;85.10;;;;;;4929027;29;20234;-82
2021/04/18 11:51:51;;;;;;;11.30;9.40;;;13.60;84.40;;;;;;4933522;29;20246;-82
2021/04/18 11:54:18;;;;;;;11.90;9.97;;;14.00;84.00;;;;;;4934526;28;20209;-82
2021/04/18 11:56:46;;;;;;;11.13;8.53;;;14.30;82.70;;;;;;4934427;28;20202;-81
2021/04/18 11:59:14;;;;;;;10.23;8.77;;;14.40;82.60;;;;;;4940339;28;20482;-84
2021/04/18 12:01:42;;;;;;;9.73;8.73;;;14.60;82.70;;;;;;4923956;28;20205;-84
2021/04/18 12:04:10;;;;;;;9.03;8.13;;;14.60;82.80;;;;;;4931437;28;20210;-83
2021/04/18 12:06:41;;;;;;;9.23;8.20;;;14.90;83.70;;;;;;4927624;29;20210;-85
2021/04/18 12:09:09;;;;;;;8.23;7.40;;;15.10;82.20;;;;;;4922716;29;20210;-83
2021/04/18 12:11:37;;;;;;;8.70;7.43;;;14.80;81.70;;;;;;4926624;29;20973;-81
2021/04/18 12:14:04;;;;;;;9.37;8.23;;;14.80;81.80;;;;;;4922795;29;20561;-82
2021/04/18 12:16:33;;;;;;;9.60;8.27;;;14.60;81.60;;;;;;4924322;28;20297;-83
2021/04/18 12:19:01;;;;;;;7.87;7.17;;;14.50;81.90;;;;;;4925241;29;20203;-82
2021/04/18 12:21:29;;;;;;;8.97;7.77;;;14.30;81.20;;;;;;4936726;28;20906;-83
2021/04/18 12:23:57;;;;;;;8.87;7.97;;;14.20;81.80;;;;;;4929074;28;20217;-83
2021/04/18 12:26:25;;;;;;;9.67;8.53;;;14.00;81.70;;;;;;4940802;29;20218;-82
2021/04/18 12:28:55;;;;;;;9.10;8.20;;;14.10;82.50;;;;;;4930523;29;20233;-82
2021/04/18 12:31:23;;;;;;;8.27;7.20;;;13.90;82.70;;;;;;4931308;28;20210;-83
2021/04/18 12:33:50;;;;;;;9.80;7.77;;;13.70;82.30;;;;;;4938651;29;20499;-81
2021/04/18 12:36:18;;;;;;;8.23;7.43;;;13.50;82.00;;;;;;4929383;29;20217;-81
2021/04/18 12:38:45;;;;;;;8.90;7.37;;;13.50;82.50;;;;;;4920413;29;20269;-84
2021/04/18 12:41:14;;;;;;;8.73;7.43;;;13.50;82.30;;;;;;4923461;29;20429;-82